createdAt,value
2023-05-05T00:00:12.201Z,98424.94
2023-05-05T00:02:41.095Z,98429.81
2023-05-05T00:05:08.127Z,98431.25
2023-05-05T00:07:34.625Z,98421.22
2023-05-05T00:10:01.069Z,98421.50
2023-05-05T00:12:28.026Z,98418.38
2023-05-05T00:14:59.568Z,98418.09
2023-05-05T00:17:26.132Z,98415.22
2023-05-05T00:19:52.796Z,98417.59
2023-05-05T00:22:19.304Z,98415.56
2023-05-05T00:24:45.812Z,98415.56
2023-05-05T00:27:12.303Z,98410.44
2023-05-05T00:29:38.910Z,98411.41
2023-05-05T00:32:05.478Z,98404.56
2023-05-05T00:34:31.981Z,98403.72
2023-05-05T00:36:58.461Z,98387.56
2023-05-05T00:39:25.234Z,98391.63
2023-05-05T00:41:58.758Z,98392.16
2023-05-05T00:44:39.207Z,98385.72
2023-05-05T00:47:12.956Z,98381.84
2023-05-05T00:49:39.906Z,98385.50
2023-05-05T00:52:07.348Z,98373.78
2023-05-05T00:54:38.152Z,98377.66
2023-05-05T00:57:04.772Z,98391.09
2023-05-05T00:59:34.013Z,98384.41
2023-05-05T01:02:01.151Z,98385.59
2023-05-05T01:04:30.535Z,98376.81
2023-05-05T01:08:00.481Z,98372.78
2023-05-05T01:11:24.478Z,98380.03
2023-05-05T01:14:16.947Z,98376.84
2023-05-05T01:17:05.457Z,98377.63
2023-05-05T01:20:07.816Z,98365.69
2023-05-05T01:22:51.281Z,98367.16
2023-05-05T01:25:41.313Z,98369.03
2023-05-05T01:28:48.468Z,98373.28
2023-05-05T01:31:31.472Z,98379.56
2023-05-05T01:34:08.446Z,98378.84
2023-05-05T01:36:47.836Z,98376.78
2023-05-05T01:39:16.992Z,98378.91
2023-05-05T01:41:59.490Z,98378.91
2023-05-05T01:44:29.535Z,98373.50
2023-05-05T01:46:56.619Z,98381.03
2023-05-05T01:49:23.830Z,98376.84
2023-05-05T01:51:55.560Z,98377.63
2023-05-05T01:54:25.767Z,98380.25
2023-05-05T01:57:01.407Z,98386.09
2023-05-05T01:59:28.916Z,98395.09
2023-05-05T02:01:59.018Z,98389.81
2023-05-05T02:04:29.848Z,98393.97
2023-05-05T02:07:02.556Z,98384.50
2023-05-05T02:09:45.576Z,98386.38
2023-05-05T02:12:13.204Z,98401.25
2023-05-05T02:14:44.031Z,98397.47
2023-05-05T02:17:13.156Z,98389.06
2023-05-05T02:19:45.684Z,98396.53
2023-05-05T02:22:12.278Z,98404.81
2023-05-05T02:24:38.878Z,98411.66
2023-05-05T02:27:07.897Z,98401.81
2023-05-05T02:29:41.904Z,98400.41
2023-05-05T02:32:33.476Z,98398.50
2023-05-05T02:35:10.839Z,98395.13
2023-05-05T02:37:44.802Z,98403.28
2023-05-05T02:40:27.212Z,98396.09
2023-05-05T02:42:57.299Z,98400.78
2023-05-05T02:45:26.650Z,98407.16
2023-05-05T02:47:53.652Z,98414.22
2023-05-05T02:50:20.812Z,98408.81
2023-05-05T02:52:47.805Z,98409.91
2023-05-05T02:55:15.116Z,98420.50
2023-05-05T02:58:07.575Z,98411.00
2023-05-05T03:00:47.808Z,98415.56
2023-05-05T03:03:22.098Z,98420.63
2023-05-05T03:06:05.124Z,98410.66
2023-05-05T03:09:03.048Z,98421.31
2023-05-05T03:11:38.301Z,98417.72
2023-05-05T03:14:13.263Z,98414.34
2023-05-05T03:16:49.035Z,98418.66
2023-05-05T03:19:20.146Z,98418.63
2023-05-05T03:21:48.124Z,98418.03
2023-05-05T03:24:19.844Z,98416.81
2023-05-05T03:26:49.896Z,98421.38
2023-05-05T03:29:16.973Z,98414.28
2023-05-05T03:31:43.537Z,98422.31
2023-05-05T03:34:10.090Z,98427.00
2023-05-05T03:36:39.844Z,98429.16
2023-05-05T03:39:06.370Z,98427.09
2023-05-05T03:41:35.792Z,98422.16
2023-05-05T03:44:02.228Z,98424.97
2023-05-05T03:46:28.834Z,98432.06
2023-05-05T03:48:57.555Z,98440.44
2023-05-05T03:51:24.953Z,98439.25
2023-05-05T03:53:51.740Z,98432.19
2023-05-05T03:56:18.214Z,98439.38
2023-05-05T03:58:44.734Z,98440.94
2023-05-05T04:01:11.682Z,98437.44
2023-05-05T04:03:39.127Z,98437.31
2023-05-05T04:06:06.016Z,98441.06
2023-05-05T04:08:32.603Z,98443.25
2023-05-05T04:10:59.174Z,98441.72
2023-05-05T04:13:25.772Z,98450.13
2023-05-05T04:15:52.303Z,98450.13
2023-05-05T04:18:18.916Z,98459.50
2023-05-05T04:20:55.487Z,98462.31
2023-05-05T04:23:21.961Z,98458.75
2023-05-05T04:25:48.416Z,98460.00
2023-05-05T04:28:14.980Z,98457.66
2023-05-05T04:30:41.596Z,98462.91
2023-05-05T04:33:11.090Z,98457.72
2023-05-05T04:35:37.881Z,98464.22
2023-05-05T04:38:04.405Z,98460.69
2023-05-05T04:40:31.179Z,98454.00
2023-05-05T04:42:57.655Z,98461.44
2023-05-05T04:45:25.092Z,98459.81
2023-05-05T04:47:51.638Z,98460.38
2023-05-05T04:50:18.143Z,98469.25
2023-05-05T04:52:44.712Z,98468.53
2023-05-05T04:55:11.524Z,98461.75
2023-05-05T04:57:38.054Z,98457.44
2023-05-05T05:00:05.597Z,98466.34
2023-05-05T05:02:32.325Z,98461.34
2023-05-05T05:04:58.934Z,98465.19
2023-05-05T05:07:26.015Z,98463.06
2023-05-05T05:09:52.572Z,98475.25
2023-05-05T05:12:19.028Z,98468.66
2023-05-05T05:14:45.556Z,98466.63
2023-05-05T05:17:12.064Z,98466.59
2023-05-05T05:19:39.071Z,98469.34
2023-05-05T05:22:05.505Z,98471.66
2023-05-05T05:24:31.957Z,98466.31
2023-05-05T05:26:58.626Z,98470.06
2023-05-05T05:29:25.303Z,98473.91
2023-05-05T05:32:09.634Z,98484.94
2023-05-05T05:34:36.299Z,98474.16
2023-05-05T05:37:02.793Z,98473.94
2023-05-05T05:39:29.265Z,98479.09
2023-05-05T05:41:58.469Z,98483.78
2023-05-05T05:44:25.068Z,98482.94
2023-05-05T05:46:51.567Z,98484.84
2023-05-05T05:49:18.072Z,98486.63
2023-05-05T05:51:44.584Z,98482.03
2023-05-05T05:54:11.088Z,98481.06
2023-05-05T05:56:37.547Z,98489.38
2023-05-05T05:59:07.970Z,98485.66
2023-05-05T06:01:35.371Z,98494.97
2023-05-05T06:04:04.784Z,98487.13
2023-05-05T06:06:31.513Z,98487.91
2023-05-05T06:08:58.019Z,98490.66
2023-05-05T06:11:24.498Z,98485.84
2023-05-05T06:13:53.521Z,98488.94
2023-05-05T06:16:19.992Z,98494.72
2023-05-05T06:18:57.763Z,98482.25
2023-05-05T06:21:24.320Z,98477.91
2023-05-05T06:23:50.953Z,98478.94
2023-05-05T06:26:17.441Z,98481.66
2023-05-05T06:28:44.039Z,98480.56
2023-05-05T06:31:15.075Z,98483.84
2023-05-05T06:33:41.681Z,98482.53
2023-05-05T06:36:08.922Z,98481.53
2023-05-05T06:38:35.467Z,98479.56
2023-05-05T06:41:02.454Z,98477.03
2023-05-05T06:43:29.466Z,98476.03
2023-05-05T06:45:56.104Z,98470.94
2023-05-05T06:48:22.565Z,98474.06
2023-05-05T06:50:49.276Z,98472.84
2023-05-05T06:53:15.939Z,98481.03
2023-05-05T06:55:47.472Z,98476.13
2023-05-05T06:58:14.205Z,98487.63
2023-05-05T07:00:41.105Z,98481.47
2023-05-05T07:03:08.015Z,98483.09
2023-05-05T07:05:34.746Z,98482.25
2023-05-05T07:08:01.382Z,98479.00
2023-05-05T07:10:28.248Z,98475.63
2023-05-05T07:12:55.252Z,98477.66
2023-05-05T07:15:28.584Z,98482.19
2023-05-05T07:17:56.507Z,98494.91
2023-05-05T07:20:23.236Z,98489.19
2023-05-05T07:22:49.888Z,98487.38
2023-05-05T07:25:16.413Z,98488.38
2023-05-05T07:27:43.228Z,98495.59
2023-05-05T07:30:13.434Z,98493.06
2023-05-05T07:32:43.083Z,98492.97
2023-05-05T07:35:09.824Z,98491.69
2023-05-05T07:37:36.350Z,98498.25
2023-05-05T07:40:03.081Z,98495.47
2023-05-05T07:42:38.317Z,98500.75
2023-05-05T07:45:06.180Z,98497.66
2023-05-05T07:47:38.860Z,98501.63
2023-05-05T07:50:06.636Z,98492.88
2023-05-05T07:52:45.206Z,98499.06
2023-05-05T07:55:14.788Z,98500.72
2023-05-05T07:57:41.441Z,98497.25
2023-05-05T08:00:09.457Z,98500.81
2023-05-05T08:02:36.334Z,98498.31
2023-05-05T08:05:02.951Z,98501.47
2023-05-05T08:07:29.430Z,98500.81
2023-05-05T08:09:56.008Z,98504.81
2023-05-05T08:12:22.545Z,98506.69
2023-05-05T08:14:49.056Z,98500.63
2023-05-05T08:17:22.805Z,98505.47
2023-05-05T08:19:52.192Z,98494.78
2023-05-05T08:22:18.911Z,98499.44
2023-05-05T08:24:48.199Z,98499.78
2023-05-05T08:27:14.932Z,98486.75
2023-05-05T08:29:41.419Z,98497.28
2023-05-05T08:32:11.156Z,98496.28
2023-05-05T08:34:40.437Z,98502.97
2023-05-05T08:37:06.992Z,98493.72
2023-05-05T08:39:33.557Z,98500.75
2023-05-05T08:42:00.135Z,98500.41
2023-05-05T08:44:37.920Z,98499.38
2023-05-05T08:47:05.600Z,98498.72
2023-05-05T08:49:47.096Z,98499.72
2023-05-05T08:52:24.165Z,98499.38
2023-05-05T08:55:06.666Z,98499.31
2023-05-05T08:57:57.661Z,98498.22
2023-05-05T09:00:26.912Z,98491.69
2023-05-05T09:02:58.099Z,98496.88
2023-05-05T09:05:26.386Z,98502.97
2023-05-05T09:07:53.328Z,98498.00
2023-05-05T09:10:19.970Z,98493.88
2023-05-05T09:12:46.756Z,98490.94
2023-05-05T09:15:15.165Z,98496.38
2023-05-05T09:17:42.981Z,98491.28
2023-05-05T09:20:15.089Z,98498.66
2023-05-05T09:22:44.558Z,98491.56
2023-05-05T09:25:14.424Z,98503.16
2023-05-05T09:27:46.985Z,98494.66
2023-05-05T09:30:26.938Z,98489.94
2023-05-05T09:32:55.314Z,98491.56
2023-05-05T09:35:23.430Z,98493.88
2023-05-05T09:37:49.968Z,98491.22
2023-05-05T09:40:19.983Z,98493.56
2023-05-05T09:42:47.532Z,98488.16
2023-05-05T09:45:19.953Z,98489.16
2023-05-05T09:47:47.963Z,98491.41
2023-05-05T09:50:18.385Z,98490.03
2023-05-05T09:53:02.461Z,98484.88
2023-05-05T09:55:33.176Z,98484.81
2023-05-05T09:58:29.751Z,98488.25
2023-05-05T10:00:58.437Z,98481.28
2023-05-05T10:03:25.929Z,98477.31
2023-05-05T10:06:00.870Z,98482.50
2023-05-05T10:08:31.282Z,98476.47
2023-05-05T10:11:07.068Z,98473.75
2023-05-05T10:13:37.896Z,98468.25
2023-05-05T10:16:09.115Z,98470.09
2023-05-05T10:18:41.657Z,98472.78
2023-05-05T10:21:09.174Z,98470.72
2023-05-05T10:23:49.344Z,98481.75
2023-05-05T10:26:19.663Z,98471.66
2023-05-05T10:28:55.474Z,98475.16
2023-05-05T10:31:41.735Z,98480.53
2023-05-05T10:34:22.758Z,98482.19
2023-05-05T10:36:51.328Z,98479.88
2023-05-05T10:39:19.872Z,98474.31
2023-05-05T10:41:48.250Z,98472.88
2023-05-05T10:44:15.449Z,98469.63
2023-05-05T10:46:43.178Z,98455.25
2023-05-05T10:49:37.378Z,98451.00
2023-05-05T10:52:25.830Z,98463.41
2023-05-05T10:55:37.078Z,98455.25
2023-05-05T10:58:03.590Z,98446.53
2023-05-05T11:00:39.547Z,98441.91
2023-05-05T11:03:18.162Z,98441.69
2023-05-05T11:06:14.110Z,98430.28
2023-05-05T11:08:43.705Z,98416.88
2023-05-05T11:11:12.354Z,98415.19
2023-05-05T11:13:40.531Z,98414.28
2023-05-05T11:16:48.126Z,98419.59
2023-05-05T11:19:42.605Z,98405.50
2023-05-05T11:22:10.672Z,98405.44
2023-05-05T11:24:39.576Z,98409.25
2023-05-05T11:27:06.848Z,98398.81
2023-05-05T11:30:06.800Z,98404.06
2023-05-05T11:32:36.632Z,98403.97
2023-05-05T11:35:03.968Z,98393.59
2023-05-05T11:37:30.482Z,98403.09
2023-05-05T11:40:30.778Z,98415.56
2023-05-05T11:43:07.300Z,98419.91
2023-05-05T11:45:34.593Z,98422.75
2023-05-05T11:48:27.009Z,98425.88
2023-05-05T11:50:54.571Z,98423.78
2023-05-05T11:53:21.277Z,98421.31
2023-05-05T11:55:47.830Z,98446.09
2023-05-05T11:58:20.958Z,98486.13
2023-05-05T12:00:47.937Z,98491.31
2023-05-05T12:03:14.691Z,98491.09
2023-05-05T12:05:41.753Z,98510.97
2023-05-05T12:08:08.397Z,98515.84
2023-05-05T12:10:34.887Z,98518.69
2023-05-05T12:13:01.444Z,98523.72
2023-05-05T12:15:30.393Z,98528.53
2023-05-05T12:17:56.926Z,98535.69
2023-05-05T12:20:34.410Z,98548.38
2023-05-05T12:23:04.780Z,98559.50
2023-05-05T12:25:40.909Z,98560.81
2023-05-05T12:28:08.949Z,98527.94
2023-05-05T12:30:35.896Z,98499.75
2023-05-05T12:33:05.209Z,98489.22
2023-05-05T12:35:33.248Z,98488.59
2023-05-05T12:37:59.838Z,98482.44
2023-05-05T12:40:52.862Z,98479.06
2023-05-05T12:43:35.302Z,98484.28
2023-05-05T12:46:10.939Z,98471.53
2023-05-05T12:48:40.744Z,98467.56
2023-05-05T12:51:20.546Z,98465.72
2023-05-05T12:53:49.382Z,98458.63
2023-05-05T12:56:35.028Z,98467.13
2023-05-05T12:59:07.499Z,98473.44
2023-05-05T13:01:56.124Z,98507.47
2023-05-05T13:04:25.588Z,98488.56
2023-05-05T13:07:14.072Z,98466.13
2023-05-05T13:09:40.794Z,98471.22
2023-05-05T13:12:12.587Z,98482.66
2023-05-05T13:14:40.644Z,98474.72
2023-05-05T13:17:07.165Z,98476.47
2023-05-05T13:19:35.640Z,98472.69
2023-05-05T13:22:02.252Z,98464.34
2023-05-05T13:24:38.601Z,98453.28
2023-05-05T13:27:13.716Z,98467.00
2023-05-05T13:29:41.528Z,98459.31
2023-05-05T13:32:07.992Z,98452.66
2023-05-05T13:34:34.765Z,98448.72
2023-05-05T13:37:01.325Z,98445.16
2023-05-05T13:39:27.808Z,98446.91
2023-05-05T13:41:54.283Z,98445.09
2023-05-05T13:44:20.998Z,98438.41
2023-05-05T13:46:47.714Z,98440.75
2023-05-05T13:49:14.255Z,98442.50
2023-05-05T13:51:40.822Z,98449.22
2023-05-05T13:54:07.517Z,98451.56
2023-05-05T13:56:34.741Z,98457.97
2023-05-05T13:59:02.310Z,98470.84
2023-05-05T14:01:29.628Z,98475.72
2023-05-05T14:03:57.541Z,98485.78
2023-05-05T14:06:24.812Z,98487.44
2023-05-05T14:08:54.012Z,98486.13
2023-05-05T14:11:20.962Z,98475.84
2023-05-05T14:13:48.024Z,98478.38
2023-05-05T14:16:14.777Z,98464.44
2023-05-05T14:18:44.130Z,98450.63
2023-05-05T14:21:11.160Z,98443.94
2023-05-05T14:23:41.276Z,98436.91
2023-05-05T14:26:08.879Z,98429.09
2023-05-05T14:28:35.615Z,98436.59
2023-05-05T14:31:02.116Z,98432.28
2023-05-05T14:33:28.647Z,98433.31
2023-05-05T14:35:55.665Z,98427.97
2023-05-05T14:38:22.199Z,98420.94
2023-05-05T14:40:48.746Z,98414.94
2023-05-05T14:43:15.310Z,98415.25
2023-05-05T14:45:42.020Z,98416.94
2023-05-05T14:48:08.796Z,98416.75
2023-05-05T14:50:35.360Z,98410.56
2023-05-05T14:53:01.906Z,98416.78
2023-05-05T14:55:28.493Z,98410.44
2023-05-05T14:57:55.002Z,98411.91
2023-05-05T15:00:26.434Z,98401.56
2023-05-05T15:02:53.041Z,98405.22
2023-05-05T15:05:19.594Z,98407.59
2023-05-05T15:07:46.164Z,98403.88
2023-05-05T15:10:12.739Z,98404.19
2023-05-05T15:12:39.279Z,98405.22
2023-05-05T15:15:09.222Z,98405.56
2023-05-05T15:17:44.551Z,98405.56
2023-05-05T15:20:11.632Z,98398.22
2023-05-05T15:22:38.349Z,98388.34
2023-05-05T15:25:08.959Z,98386.31
2023-05-05T15:27:37.124Z,98381.09
2023-05-05T15:30:04.795Z,98389.25
2023-05-05T15:32:31.954Z,98392.75
2023-05-05T15:34:58.626Z,98393.09
2023-05-05T15:37:27.383Z,98387.06
2023-05-05T15:39:55.171Z,98393.78
2023-05-05T15:42:21.717Z,98381.75
2023-05-05T15:44:48.212Z,98385.72
2023-05-05T15:47:14.849Z,98377.84
2023-05-05T15:49:41.357Z,98368.59
2023-05-05T15:52:07.998Z,98370.59
2023-05-05T15:54:34.875Z,98370.06
2023-05-05T15:57:03.034Z,98364.59
2023-05-05T15:59:29.504Z,98365.03
2023-05-05T16:01:56.130Z,98367.00
2023-05-05T16:04:22.580Z,98374.63
2023-05-05T16:06:49.092Z,98374.13
2023-05-05T16:09:15.640Z,98384.06
2023-05-05T16:11:42.197Z,98384.66
2023-05-05T16:14:08.695Z,98382.16
2023-05-05T16:16:35.377Z,98377.34
2023-05-05T16:19:01.952Z,98379.88
2023-05-05T16:21:28.461Z,98376.84
2023-05-05T16:23:56.940Z,98377.69
2023-05-05T16:26:23.473Z,98374.56
2023-05-05T16:28:50.282Z,98385.41
2023-05-05T16:31:16.843Z,98382.53
2023-05-05T16:33:43.669Z,98389.25
2023-05-05T16:36:12.194Z,98393.63
2023-05-05T16:38:42.092Z,98395.44
2023-05-05T16:41:08.657Z,98401.13
2023-05-05T16:43:37.040Z,98398.25
2023-05-05T16:46:04.193Z,98404.81
2023-05-05T16:48:30.810Z,98403.47
2023-05-05T16:50:57.940Z,98403.31
2023-05-05T16:53:25.012Z,98402.16
2023-05-05T16:55:53.126Z,98406.34
2023-05-05T16:58:22.295Z,98412.03
2023-05-05T17:00:50.394Z,98424.59
2023-05-05T17:03:18.921Z,98426.25
2023-05-05T17:05:49.808Z,98427.63
2023-05-05T17:08:16.760Z,98443.59
2023-05-05T17:10:45.304Z,98466.94
2023-05-05T17:13:14.100Z,98470.44
2023-05-05T17:15:41.388Z,98472.28
2023-05-05T17:18:08.700Z,98457.19
2023-05-05T17:20:37.430Z,98478.66
2023-05-05T17:23:04.820Z,98490.00
2023-05-05T17:25:31.924Z,98477.06
2023-05-05T17:27:58.483Z,98476.88
2023-05-05T17:30:25.226Z,98468.63
2023-05-05T17:32:52.037Z,98468.72
2023-05-05T17:35:18.894Z,98460.03
2023-05-05T17:37:45.626Z,98454.97
2023-05-05T17:40:12.307Z,98454.50
2023-05-05T17:42:38.923Z,98453.56
2023-05-05T17:45:06.609Z,98447.97
2023-05-05T17:47:33.296Z,98452.63
2023-05-05T17:50:00.098Z,98449.66
2023-05-05T17:52:26.942Z,98451.19
2023-05-05T17:54:53.462Z,98450.41
2023-05-05T17:57:22.787Z,98450.72
2023-05-05T17:59:50.043Z,98453.13
2023-05-05T18:02:17.051Z,98454.78
2023-05-05T18:04:43.730Z,98451.47
2023-05-05T18:07:12.190Z,98453.69
2023-05-05T18:09:39.102Z,98455.41
2023-05-05T18:12:06.821Z,98454.88
2023-05-05T18:14:33.901Z,98464.13
2023-05-05T18:17:01.214Z,98453.19
2023-05-05T18:19:30.018Z,98458.53
2023-05-05T18:21:57.429Z,98464.56
2023-05-05T18:24:24.018Z,98460.22
2023-05-05T18:26:53.157Z,98453.50
2023-05-05T18:29:21.745Z,98455.88
2023-05-05T18:31:51.751Z,98454.38
2023-05-05T18:34:20.342Z,98464.28
2023-05-05T18:36:52.736Z,98458.31
2023-05-05T18:39:26.653Z,98453.53
2023-05-05T18:41:53.340Z,98452.59
2023-05-05T18:44:20.208Z,98464.28
2023-05-05T18:46:48.217Z,98460.53
2023-05-05T18:49:15.275Z,98460.53
2023-05-05T18:51:41.903Z,98461.94
2023-05-05T18:54:08.419Z,98464.50
2023-05-05T18:56:35.000Z,98463.66
2023-05-05T18:59:01.538Z,98462.25
2023-05-05T19:01:28.080Z,98460.00
2023-05-05T19:03:54.624Z,98468.66
2023-05-05T19:06:21.155Z,98467.69
2023-05-05T19:08:47.963Z,98472.47
2023-05-05T19:11:14.991Z,98472.28
2023-05-05T19:13:41.763Z,98476.38
2023-05-05T19:16:08.486Z,98474.41
2023-05-05T19:18:35.200Z,98474.84
2023-05-05T19:21:02.345Z,98474.81
2023-05-05T19:23:31.778Z,98479.66
2023-05-05T19:26:00.363Z,98479.09
2023-05-05T19:28:26.940Z,98473.75
2023-05-05T19:30:53.531Z,98481.31
2023-05-05T19:33:20.160Z,98486.72
2023-05-05T19:35:47.054Z,98484.47
2023-05-05T19:38:13.656Z,98487.06
2023-05-05T19:40:41.096Z,98491.19
2023-05-05T19:43:08.322Z,98489.50
2023-05-05T19:45:37.630Z,98496.63
2023-05-05T19:48:04.647Z,98494.28
2023-05-05T19:50:31.551Z,98496.28
2023-05-05T19:52:58.326Z,98501.38
2023-05-05T19:55:25.049Z,98496.91
2023-05-05T19:57:51.585Z,98499.44
2023-05-05T20:00:19.529Z,98499.25
2023-05-05T20:02:46.416Z,98501.56
2023-05-05T20:05:14.865Z,98502.06
2023-05-05T20:07:44.334Z,98499.69
2023-05-05T20:10:12.984Z,98500.84
2023-05-05T20:12:42.395Z,98492.50
2023-05-05T20:15:11.170Z,98492.03
2023-05-05T20:17:37.694Z,98485.31
2023-05-05T20:20:04.841Z,98480.78
2023-05-05T20:22:31.527Z,98482.66
2023-05-05T20:24:58.204Z,98481.22
2023-05-05T20:27:28.746Z,98490.66
2023-05-05T20:29:55.407Z,98497.19
2023-05-05T20:32:21.972Z,98501.69
2023-05-05T20:34:48.604Z,98499.09
2023-05-05T20:37:15.248Z,98501.63
2023-05-05T20:39:43.635Z,98496.19
2023-05-05T20:42:10.792Z,98495.69
2023-05-05T20:44:37.620Z,98497.03
2023-05-05T20:47:04.706Z,98493.56
2023-05-05T20:49:31.426Z,98505.66
2023-05-05T20:51:58.759Z,98510.03
2023-05-05T20:54:25.240Z,98513.41
2023-05-05T20:56:53.027Z,98515.31
2023-05-05T20:59:19.531Z,98520.97
2023-05-05T21:01:46.129Z,98515.66
2023-05-05T21:04:12.652Z,98520.31
2023-05-05T21:06:39.081Z,98515.84
2023-05-05T21:09:05.660Z,98514.44
2023-05-05T21:11:32.275Z,98519.59
2023-05-05T21:13:58.811Z,98512.63
2023-05-05T21:16:25.500Z,98522.56
2023-05-05T21:19:00.669Z,98510.56
2023-05-05T21:21:29.766Z,98508.88
2023-05-05T21:23:57.565Z,98513.47
2023-05-05T21:26:25.035Z,98512.09
2023-05-05T21:28:52.523Z,98503.75
2023-05-05T21:31:22.150Z,98514.44
2023-05-05T21:33:51.763Z,98510.50
2023-05-05T21:36:25.705Z,98509.34
2023-05-05T21:38:56.697Z,98515.22
2023-05-05T21:41:24.490Z,98519.91
2023-05-05T21:43:51.002Z,98511.66
2023-05-05T21:46:20.358Z,98511.41
2023-05-05T21:48:50.275Z,98513.84
2023-05-05T21:51:17.339Z,98513.56
2023-05-05T21:53:43.990Z,98517.16
2023-05-05T21:56:10.541Z,98509.50
2023-05-05T21:58:37.078Z,98508.53
2023-05-05T22:01:03.723Z,98510.44
2023-05-05T22:03:30.435Z,98515.13
2023-05-05T22:06:04.888Z,98506.94
2023-05-05T22:08:31.413Z,98513.66
2023-05-05T22:11:00.514Z,98519.03
2023-05-05T22:13:26.996Z,98508.50
2023-05-05T22:15:58.698Z,98516.06
2023-05-05T22:18:25.272Z,98519.91
2023-05-05T22:20:52.133Z,98524.31
2023-05-05T22:23:18.703Z,98522.41
2023-05-05T22:25:45.350Z,98529.50
2023-05-05T22:28:11.988Z,98524.00
2023-05-05T22:30:40.653Z,98535.38
2023-05-05T22:33:16.791Z,98530.31
2023-05-05T22:35:43.322Z,98528.03
2023-05-05T22:38:09.880Z,98534.13
2023-05-05T22:40:36.425Z,98531.28
2023-05-05T22:43:02.910Z,98538.31
2023-05-05T22:45:31.468Z,98539.56
2023-05-05T22:47:58.013Z,98538.88
2023-05-05T22:50:24.659Z,98538.91
2023-05-05T22:52:51.181Z,98532.16
2023-05-05T22:55:17.797Z,98529.53
2023-05-05T22:57:44.326Z,98524.75
2023-05-05T23:00:11.293Z,98540.59
2023-05-05T23:02:38.851Z,98539.50
2023-05-05T23:05:05.920Z,98533.69
2023-05-05T23:07:32.407Z,98539.78
2023-05-05T23:10:07.790Z,98544.16
2023-05-05T23:12:43.001Z,98544.50
2023-05-05T23:15:10.642Z,98537.78
2023-05-05T23:17:37.398Z,98545.88
2023-05-05T23:20:04.496Z,98542.13
2023-05-05T23:22:41.333Z,98538.91
2023-05-05T23:25:11.554Z,98534.72
2023-05-05T23:27:44.995Z,98537.34
2023-05-05T23:30:12.438Z,98541.22
2023-05-05T23:32:39.034Z,98539.88
2023-05-05T23:35:20.183Z,98547.78
2023-05-05T23:37:46.694Z,98545.13
2023-05-05T23:40:13.214Z,98545.47
2023-05-05T23:42:48.399Z,98545.47
2023-05-05T23:45:15.981Z,98553.44
2023-05-05T23:47:43.505Z,98546.22
2023-05-05T23:50:10.185Z,98537.09
2023-05-05T23:52:36.675Z,98536.16
2023-05-05T23:55:03.334Z,98535.53
2023-05-05T23:57:29.821Z,98532.53
2023-05-05T23:59:56.271Z,98522.13
